createdAt,value
2018-10-11T00:00:06.263Z,64.60
2018-10-11T00:02:35.288Z,64.60
2018-10-11T00:05:04.187Z,64.60
2018-10-11T00:07:33.574Z,64.50
2018-10-11T00:12:29.419Z,64.50
2018-10-11T00:14:58.022Z,65.30
2018-10-11T00:17:26.507Z,64.50
2018-10-11T00:19:55.155Z,64.50
2018-10-11T00:22:24.288Z,64.50
2018-10-11T00:24:52.581Z,64.50
2018-10-11T00:27:21.246Z,64.40
2018-10-11T00:32:16.823Z,64.50
2018-10-11T00:34:46.112Z,64.40
2018-10-11T00:39:42.266Z,64.90
2018-10-11T00:55:15.947Z,65.00
2018-10-11T00:57:44.955Z,64.20
2018-10-11T01:00:13.563Z,64.20
2018-10-11T01:05:09.315Z,64.30
2018-10-11T01:07:38.839Z,64.10
2018-10-11T01:10:08.372Z,64.10
2018-10-11T01:12:36.812Z,64.20
2018-10-11T01:15:05.635Z,64.10
2018-10-11T01:20:01.471Z,64.10
2018-10-11T01:22:30.069Z,64.10
2018-10-11T01:24:58.950Z,64.10
2018-10-11T01:27:27.394Z,64.10
2018-10-11T01:29:56.522Z,64.00
2018-10-11T01:32:25.773Z,64.00
2018-10-11T01:34:54.233Z,63.90
2018-10-11T01:37:23.745Z,63.90
2018-10-11T01:42:18.937Z,64.00
2018-10-11T01:44:48.323Z,63.80
2018-10-11T01:47:17.291Z,63.80
2018-10-11T01:52:13.974Z,63.90
2018-10-11T01:54:43.046Z,63.90
2018-10-11T01:59:39.727Z,63.80
2018-10-11T02:02:08.786Z,63.80
2018-10-11T02:04:37.327Z,63.90
2018-10-11T02:07:06.582Z,63.80
2018-10-11T02:09:36.093Z,63.70
2018-10-11T02:12:04.648Z,63.70
2018-10-11T02:14:33.195Z,63.80
2018-10-11T02:17:01.709Z,63.70
2018-10-11T02:19:30.664Z,63.80
2018-10-11T02:24:26.273Z,63.80
2018-10-11T02:29:23.147Z,63.70
2018-10-11T02:31:52.090Z,63.70
2018-10-11T02:34:20.889Z,63.70
2018-10-11T02:39:16.623Z,63.70
2018-10-11T02:41:45.929Z,63.50
2018-10-11T02:44:15.142Z,63.70
2018-10-11T02:46:43.381Z,63.60
2018-10-11T02:49:11.998Z,63.60
2018-10-11T02:54:08.102Z,63.60
2018-10-11T02:56:36.650Z,63.60
2018-10-11T03:01:32.180Z,63.50
2018-10-11T03:04:03.740Z,63.60
2018-10-11T03:06:33.996Z,63.50
2018-10-11T03:09:02.861Z,63.40
2018-10-11T03:13:58.849Z,64.30
2018-10-11T03:16:27.992Z,63.40
2018-10-11T03:18:56.886Z,63.40
2018-10-11T03:21:26.110Z,63.30
2018-10-11T03:23:55.309Z,63.20
2018-10-11T03:26:24.306Z,63.40
2018-10-11T03:28:53.172Z,63.20
2018-10-11T03:31:22.019Z,63.20
2018-10-11T03:33:51.258Z,63.20
2018-10-11T03:36:19.521Z,63.20
2018-10-11T03:38:48.312Z,63.10
2018-10-11T03:41:17.398Z,63.20
2018-10-11T03:43:46.300Z,63.00
2018-10-11T03:46:15.218Z,63.10
2018-10-11T03:48:44.418Z,63.10
2018-10-11T03:53:40.547Z,63.00
2018-10-11T03:56:09.449Z,63.00
2018-10-11T04:01:05.398Z,63.00
2018-10-11T04:03:34.762Z,63.00
2018-10-11T04:06:03.801Z,62.90
2018-10-11T04:08:32.306Z,62.90
2018-10-11T04:11:01.242Z,62.90
2018-10-11T04:13:30.229Z,62.90
2018-10-11T04:15:59.180Z,62.90
2018-10-11T04:18:28.150Z,62.80
2018-10-11T04:23:28.205Z,62.80
2018-10-11T04:25:57.061Z,62.80
2018-10-11T04:28:26.624Z,62.80
2018-10-11T04:30:55.726Z,62.80
2018-10-11T04:33:25.186Z,62.70
2018-10-11T04:35:53.784Z,62.70
2018-10-11T04:38:22.626Z,62.70
2018-10-11T04:43:18.159Z,62.70
2018-10-11T04:45:46.688Z,62.70
2018-10-11T04:48:15.561Z,62.60
2018-10-11T04:50:44.647Z,62.60
2018-10-11T04:53:14.573Z,62.60
2018-10-11T04:55:44.503Z,62.60
2018-10-11T05:00:40.713Z,62.60
2018-10-11T05:03:11.406Z,62.40
2018-10-11T05:05:41.031Z,62.60
2018-10-11T05:08:10.671Z,62.50
2018-10-11T05:13:06.546Z,62.40
2018-10-11T05:15:36.565Z,63.10
2018-10-11T05:18:05.835Z,62.40
2018-10-11T05:20:34.819Z,62.40
2018-10-11T05:23:03.393Z,62.40
2018-10-11T05:25:31.977Z,62.40
2018-10-11T05:28:00.911Z,62.30
2018-10-11T05:30:29.316Z,62.30
2018-10-11T05:32:58.225Z,62.30
2018-10-11T05:35:26.936Z,62.30
2018-10-11T05:37:56.380Z,62.20
2018-10-11T05:40:25.286Z,62.20
2018-10-11T05:42:54.399Z,62.20
2018-10-11T05:45:24.077Z,62.10
2018-10-11T05:50:19.871Z,62.90
2018-10-11T05:52:48.501Z,62.00
2018-10-11T05:55:17.936Z,62.00
2018-10-11T05:57:46.643Z,62.10
2018-10-11T06:00:15.670Z,62.00
2018-10-11T06:02:52.501Z,62.00
2018-10-11T06:05:21.885Z,62.90
2018-10-11T06:07:51.355Z,62.00
2018-10-11T06:10:20.558Z,62.80
2018-10-11T06:12:51.534Z,62.70
2018-10-11T06:17:47.486Z,63.00
2018-10-11T06:20:16.376Z,63.60
2018-10-11T06:22:44.590Z,62.70
2018-10-11T06:25:13.462Z,62.60
2018-10-11T06:27:42.895Z,62.50
2018-10-11T06:30:12.505Z,62.50
2018-10-11T06:32:42.279Z,62.30
2018-10-11T06:37:42.126Z,62.30
2018-10-11T06:40:10.837Z,62.20
2018-10-11T06:42:40.213Z,62.10
2018-10-11T06:45:10.561Z,62.10
2018-10-11T06:47:39.432Z,62.00
2018-10-11T06:50:09.383Z,62.00
2018-10-11T06:52:38.828Z,62.10
2018-10-11T06:57:34.334Z,62.00
2018-10-11T07:00:03.418Z,61.90
2018-10-11T07:04:59.393Z,61.90
2018-10-11T07:07:28.916Z,61.90
2018-10-11T07:09:58.028Z,61.90
2018-10-11T07:12:27.484Z,62.70
2018-10-11T07:14:56.690Z,61.90
2018-10-11T07:17:25.957Z,62.70
2018-10-11T07:19:55.143Z,61.80
2018-10-11T07:22:24.109Z,61.80
2018-10-11T07:24:52.597Z,61.80
2018-10-11T07:27:21.803Z,61.80
2018-10-11T07:29:50.758Z,61.90
2018-10-11T07:34:50.342Z,61.90
2018-10-11T07:37:19.614Z,61.80
2018-10-11T07:39:48.760Z,61.90
2018-10-11T07:42:17.853Z,61.90
2018-10-11T07:47:13.091Z,61.90
2018-10-11T07:49:48.148Z,62.60
2018-10-11T07:52:16.694Z,61.90
2018-10-11T07:54:45.975Z,61.80
2018-10-11T07:57:14.878Z,61.80
2018-10-11T08:02:10.247Z,61.80
2018-10-11T08:04:39.369Z,61.90
2018-10-11T08:07:08.363Z,61.90
2018-10-11T08:09:37.376Z,61.80
2018-10-11T08:12:06.084Z,61.90
2018-10-11T08:14:34.616Z,61.80
2018-10-11T08:17:03.583Z,61.70
2018-10-11T08:19:32.259Z,61.80
2018-10-11T08:22:01.016Z,61.80
2018-10-11T08:24:30.117Z,62.30
2018-10-11T08:26:59.275Z,61.80
2018-10-11T08:29:28.604Z,61.70
2018-10-11T08:31:57.159Z,61.70
2018-10-11T08:36:51.949Z,61.70
2018-10-11T08:39:21.151Z,61.80
2018-10-11T08:41:50.312Z,61.70
2018-10-11T08:44:20.095Z,61.60
2018-10-11T08:46:49.225Z,61.80
2018-10-11T08:49:17.777Z,61.60
2018-10-11T08:51:46.516Z,61.60
2018-10-11T12:18:06.236Z,60.30
2018-10-11T12:20:36.453Z,60.50
2018-10-11T12:23:06.227Z,60.50
2018-10-11T12:25:34.831Z,61.50
2018-10-11T12:28:03.361Z,60.20
2018-10-11T12:30:32.425Z,60.60
2018-10-11T12:33:01.031Z,60.30
2018-10-11T12:35:29.809Z,60.10
2018-10-11T12:37:58.291Z,60.40
2018-10-11T12:40:27.604Z,60.40
2018-10-11T12:42:56.106Z,60.40
2018-10-11T12:45:24.810Z,60.10
2018-10-11T12:47:53.571Z,60.80
2018-10-11T12:50:22.527Z,60.00
2018-10-11T12:52:50.767Z,60.60
2018-10-11T12:55:19.764Z,60.10
2018-10-11T12:57:48.814Z,60.30
2018-10-11T13:00:17.946Z,60.40
2018-10-11T13:02:47.390Z,60.70
2018-10-11T13:05:15.653Z,60.10
2018-10-11T13:07:44.648Z,60.60
2018-10-11T13:10:12.846Z,60.10
2018-10-11T13:12:41.100Z,61.20
2018-10-11T13:15:09.637Z,60.20
2018-10-11T13:17:41.822Z,59.90
2018-10-11T13:20:07.002Z,60.10
2018-10-11T13:22:36.079Z,59.90
2018-10-11T13:27:32.243Z,59.80
2018-10-11T13:30:00.709Z,59.60
2018-10-11T13:32:29.186Z,59.70
2018-10-11T13:34:57.389Z,60.30
2018-10-11T13:37:25.584Z,60.60
2018-10-11T13:39:56.991Z,59.90
2018-10-11T13:42:21.993Z,59.90
2018-10-11T13:44:50.648Z,59.90
2018-10-11T13:47:19.308Z,59.70
2018-10-11T13:49:48.701Z,59.90
2018-10-11T13:52:20.558Z,60.30
2018-10-11T13:54:46.012Z,59.80
2018-10-11T13:57:14.923Z,60.20
2018-10-11T13:59:43.187Z,60.20
2018-10-11T14:02:11.679Z,60.30
2018-10-11T14:04:40.258Z,60.20
2018-10-11T14:07:08.714Z,61.30
2018-10-11T14:09:37.935Z,61.10
2018-10-11T14:12:06.833Z,65.80
2018-10-11T14:14:36.178Z,63.70
2018-10-11T14:17:05.395Z,63.60
2018-10-11T14:19:34.030Z,62.90
2018-10-11T14:22:02.699Z,63.00
2018-10-11T14:24:31.374Z,62.20
2018-10-11T14:27:01.883Z,61.70
2018-10-11T14:29:31.054Z,61.70
2018-10-11T14:31:59.634Z,61.10
2018-10-11T14:34:28.276Z,61.30
2018-10-11T14:36:56.924Z,61.10
2018-10-11T14:39:26.219Z,61.10
2018-10-11T14:41:57.374Z,60.80
2018-10-11T14:44:27.127Z,60.60
2018-10-11T14:46:55.665Z,60.90
2018-10-11T14:49:26.973Z,60.40
2018-10-11T14:51:55.148Z,60.60
2018-10-11T14:54:24.094Z,60.30
2018-10-11T14:56:52.794Z,60.60
2018-10-11T14:59:21.051Z,61.40
2018-10-11T15:01:49.901Z,61.10
2018-10-11T15:04:18.436Z,60.20
2018-10-11T15:06:47.048Z,59.80
2018-10-11T15:09:16.051Z,60.50
2018-10-11T15:11:44.774Z,61.20
2018-10-11T15:14:12.957Z,61.40
2018-10-11T15:16:47.648Z,61.00
2018-10-11T15:19:16.074Z,61.00
2018-10-11T15:21:44.557Z,60.10
2018-10-11T15:24:13.126Z,60.20
2018-10-11T15:26:42.770Z,60.50
2018-10-11T15:29:12.054Z,60.00
2018-10-11T15:31:40.669Z,59.70
2018-10-11T15:34:08.866Z,59.60
2018-10-11T15:36:37.537Z,59.60
2018-10-11T15:39:08.691Z,59.70
2018-10-11T15:41:37.664Z,59.70
2018-10-11T15:44:06.461Z,59.80
2018-10-11T15:46:35.067Z,59.70
2018-10-11T15:49:03.641Z,59.70
2018-10-11T15:51:32.079Z,59.70
2018-10-11T15:54:00.300Z,59.40
2018-10-11T15:56:29.754Z,59.30
2018-10-11T15:58:58.887Z,59.40
2018-10-11T16:01:27.419Z,59.40
2018-10-11T16:06:22.739Z,59.40
2018-10-11T16:08:52.262Z,59.90
2018-10-11T16:11:21.313Z,59.70
2018-10-11T16:13:49.872Z,59.80
2018-10-11T16:16:18.622Z,59.60
2018-10-11T16:18:46.830Z,59.80
2018-10-11T16:21:15.042Z,59.60
2018-10-11T16:23:44.120Z,59.40
2018-10-11T16:26:13.276Z,59.40
2018-10-11T16:28:42.063Z,59.50
2018-10-11T16:31:10.831Z,59.30
2018-10-11T16:33:39.830Z,59.40
2018-10-11T16:38:35.057Z,59.30
2018-10-11T16:41:04.153Z,59.40
2018-10-11T16:43:32.592Z,59.30
2018-10-11T16:46:01.529Z,59.40
2018-10-11T16:48:30.097Z,59.70
2018-10-11T16:50:58.899Z,59.60
2018-10-11T16:53:27.559Z,59.90
2018-10-11T16:55:57.141Z,59.80
2018-10-11T16:58:26.864Z,59.80
2018-10-11T17:00:56.757Z,60.00
2018-10-11T17:03:25.658Z,60.20
2018-10-11T17:05:54.712Z,60.20
2018-10-11T17:08:24.273Z,60.20
2018-10-11T17:10:53.213Z,60.20
2018-10-11T17:13:21.893Z,60.40
2018-10-11T17:15:51.092Z,60.50
2018-10-11T17:18:20.125Z,61.30
2018-10-11T17:20:49.250Z,60.50
2018-10-11T17:23:18.020Z,60.50
2018-10-11T17:25:46.529Z,60.50
2018-10-11T17:28:15.398Z,60.60
2018-10-11T17:30:44.820Z,60.70
2018-10-11T17:33:13.934Z,60.60
2018-10-11T17:35:42.879Z,60.80
2018-10-11T17:40:38.740Z,60.90
2018-10-11T17:43:07.532Z,60.90
2018-10-11T17:45:36.158Z,60.70
2018-10-11T17:50:31.223Z,60.90
2018-10-11T17:53:00.207Z,61.50
2018-10-11T17:55:29.928Z,61.60
2018-10-11T17:57:59.263Z,61.60
2018-10-11T18:00:28.137Z,61.90
2018-10-11T18:02:56.869Z,62.20
2018-10-11T18:05:25.517Z,62.70
2018-10-11T18:07:54.271Z,61.80
2018-10-11T18:10:23.621Z,61.70
2018-10-11T18:12:52.447Z,61.50
2018-10-11T18:17:52.097Z,61.50
2018-10-11T18:20:21.267Z,61.10
2018-10-11T18:22:50.288Z,60.90
2018-10-11T18:25:19.803Z,60.80
2018-10-11T18:27:49.246Z,60.50
2018-10-11T18:30:18.607Z,60.50
2018-10-11T18:32:47.700Z,60.20
2018-10-11T18:35:16.713Z,60.10
2018-10-11T18:37:45.672Z,60.00
2018-10-11T18:40:15.213Z,59.90
2018-10-11T18:42:43.551Z,59.80
2018-10-11T18:45:12.209Z,59.60
2018-10-11T18:47:41.372Z,60.20
2018-10-11T18:50:11.053Z,59.50
2018-10-11T18:52:40.018Z,59.30
2018-10-11T18:55:09.225Z,59.30
2018-10-11T18:57:38.166Z,59.20
2018-10-11T19:00:07.680Z,59.20
2018-10-11T19:02:37.061Z,59.20
2018-10-11T19:05:06.490Z,59.10
2018-10-11T19:07:35.570Z,58.90
2018-10-11T19:10:05.084Z,58.60
2018-10-11T19:12:34.594Z,58.40
2018-10-11T19:15:03.852Z,58.80
2018-10-11T19:17:33.189Z,58.40
2018-10-11T19:20:02.794Z,58.30
2018-10-11T19:22:32.049Z,58.00
2018-10-11T19:25:00.873Z,58.80
2018-10-11T19:27:29.876Z,58.20
2018-10-11T19:29:59.355Z,58.20
2018-10-11T19:32:28.405Z,58.20
2018-10-11T19:34:57.373Z,58.20
2018-10-11T19:37:26.627Z,58.20
2018-10-11T19:39:56.123Z,57.90
2018-10-11T19:42:25.696Z,57.90
2018-10-11T19:44:55.062Z,58.00
2018-10-11T19:47:23.473Z,57.90
2018-10-11T19:49:52.436Z,57.90
2018-10-11T19:52:22.395Z,57.90
2018-10-11T19:54:51.616Z,58.00
2018-10-11T19:57:20.050Z,57.90
2018-10-11T19:59:48.921Z,57.90
2018-10-11T20:02:18.399Z,57.80
2018-10-11T20:04:47.282Z,58.00
2018-10-11T20:07:16.203Z,57.90
2018-10-11T20:09:45.187Z,58.10
2018-10-11T20:14:40.521Z,58.00
2018-10-11T20:17:09.031Z,58.10
2018-10-11T20:19:37.601Z,57.80
2018-10-11T20:22:08.339Z,57.80
2018-10-11T20:24:38.022Z,57.80
2018-10-11T20:27:09.675Z,57.70
2018-10-11T20:29:39.383Z,57.70
2018-10-11T20:32:08.727Z,57.70
2018-10-11T20:34:37.722Z,57.70
2018-10-11T20:37:06.384Z,57.70
2018-10-11T20:39:35.627Z,57.70
2018-10-11T20:42:04.215Z,57.60
2018-10-11T20:47:00.466Z,57.60
2018-10-11T20:49:29.466Z,57.50
2018-10-11T20:51:58.664Z,57.30
2018-10-11T20:54:27.477Z,57.50
2018-10-11T20:56:56.384Z,57.30
2018-10-11T20:59:25.986Z,57.40
2018-10-11T21:01:55.547Z,57.30
2018-10-11T21:04:24.293Z,57.30
2018-10-11T21:06:53.956Z,57.30
2018-10-11T21:09:22.681Z,57.30
2018-10-11T21:11:51.428Z,57.40
2018-10-11T21:14:20.377Z,57.30
2018-10-11T21:19:15.732Z,57.30
2018-10-11T21:21:44.946Z,57.20
2018-10-11T21:24:13.538Z,57.20
2018-10-11T21:26:42.255Z,57.10
2018-10-11T21:29:11.142Z,57.10
2018-10-11T21:31:40.613Z,57.00
2018-10-11T21:34:09.347Z,57.10
2018-10-11T21:36:38.255Z,57.20
2018-10-11T21:39:11.235Z,56.90
2018-10-11T21:41:40.277Z,57.10
2018-10-11T21:44:09.592Z,57.10
2018-10-11T21:46:38.693Z,57.00
2018-10-11T21:49:07.588Z,57.00
2018-10-11T21:54:03.389Z,57.10
2018-10-11T21:56:32.735Z,56.80
2018-10-11T21:59:01.424Z,56.90
2018-10-11T22:01:30.524Z,56.90
2018-10-11T22:03:59.396Z,56.90
2018-10-11T22:06:28.264Z,56.90
2018-10-11T22:08:56.490Z,56.90
2018-10-11T22:11:25.570Z,56.80
2018-10-11T22:16:21.528Z,56.90
2018-10-11T22:18:50.131Z,56.80
2018-10-11T22:21:18.582Z,56.80
2018-10-11T22:23:46.784Z,56.70
2018-10-11T22:26:15.680Z,56.80
2018-10-11T22:28:44.677Z,56.70
2018-10-11T22:31:13.655Z,56.80
2018-10-11T22:33:42.783Z,56.80
2018-10-11T22:36:12.663Z,56.80
2018-10-11T22:38:41.938Z,56.80
2018-10-11T22:41:11.793Z,56.80
2018-10-11T22:43:40.800Z,56.80
2018-10-11T22:46:09.347Z,56.70
2018-10-11T22:48:38.281Z,56.70
2018-10-11T22:51:07.176Z,56.40
2018-10-11T22:53:36.053Z,56.60
2018-10-11T22:56:04.626Z,56.40
2018-10-11T22:58:33.373Z,56.60
2018-10-11T23:01:02.312Z,56.60
2018-10-11T23:03:31.087Z,56.50
2018-10-11T23:05:59.751Z,56.70
2018-10-11T23:08:29.179Z,56.60
2018-10-11T23:10:57.778Z,56.60
2018-10-11T23:13:27.288Z,56.30
2018-10-11T23:15:55.793Z,56.60
2018-10-11T23:18:24.446Z,56.40
2018-10-11T23:20:53.027Z,56.40
2018-10-11T23:23:21.581Z,56.40
2018-10-11T23:25:50.935Z,56.20
2018-10-11T23:28:19.465Z,56.40
2018-10-11T23:30:48.079Z,56.30
2018-10-11T23:33:16.783Z,56.10
2018-10-11T23:35:45.598Z,56.10
2018-10-11T23:38:14.416Z,56.00
2018-10-11T23:40:43.182Z,56.10
2018-10-11T23:43:12.113Z,55.90
2018-10-11T23:45:41.037Z,56.00
2018-10-11T23:48:09.235Z,55.90
2018-10-11T23:50:37.773Z,55.80
2018-10-11T23:53:06.385Z,55.60
2018-10-11T23:55:34.576Z,55.70
2018-10-11T23:58:03.573Z,55.60
